Time;durP1;ratioP1;P1;durP2;ratioP2;P2;SDS_P1;SDS_P2;PMS_P1;PMS_P2;Temp;Humidity;BMP_temperature;BMP_pressure;BME280_temperature;BME280_humidity;BME280_pressure;Samples;Min_cycle;Max_cycle;Signal;HPM_P1;HPM_P2
2023/01/16 00:01:21;;;;;;;12.65;3.33;;;;;;;3.58;100.00;98814.38;4951807;28;20176;-77
2023/01/16 00:03:47;;;;;;;18.17;3.47;;;;;;;3.52;100.00;98796.59;4951750;28;20031;-76
2023/01/16 00:06:12;;;;;;;16.10;3.57;;;;;;;3.54;100.00;98807.81;4951969;28;20488;-77
2023/01/16 00:08:38;;;;;;;5.18;2.90;;;;;;;3.58;100.00;98796.75;4934395;28;20274;-77
2023/01/16 00:11:03;;;;;;;8.88;2.95;;;;;;;3.45;100.00;98771.88;4962630;28;20472;-76
2023/01/16 00:13:28;;;;;;;8.68;3.58;;;;;;;3.54;100.00;98791.97;4953762;28;20042;-77
2023/01/16 00:15:54;;;;;;;14.48;3.33;;;;;;;3.45;100.00;98788.50;4969383;28;20089;-77
2023/01/16 00:18:19;;;;;;;4.73;2.40;;;;;;;3.41;100.00;98776.63;4953340;28;20026;-77
2023/01/16 00:20:47;;;;;;;10.67;3.70;;;;;;;3.45;100.00;98783.22;4939435;28;20657;-76
2023/01/16 00:23:12;;;;;;;11.80;3.40;;;;;;;3.50;100.00;98780.09;4957754;28;20475;-77
2023/01/16 00:25:40;;;;;;;10.63;3.05;;;;;;;3.44;100.00;98764.91;4952639;28;20034;-77
2023/01/16 00:28:06;;;;;;;9.07;2.80;;;;;;;3.37;100.00;98762.97;4957404;28;20074;-76
2023/01/16 00:30:31;;;;;;;7.05;3.75;;;;;;;3.32;100.00;98761.78;4961739;28;20044;-76
2023/01/16 00:32:56;;;;;;;7.83;2.63;;;;;;;3.30;100.00;98767.25;4942599;28;20125;-76
2023/01/16 00:35:22;;;;;;;16.40;3.70;;;;;;;3.37;100.00;98770.03;4948840;28;20102;-76
2023/01/16 00:37:47;;;;;;;6.30;2.80;;;;;;;3.33;100.00;98785.38;4961315;28;20051;-77
2023/01/16 00:40:12;;;;;;;4.83;2.87;;;;;;;3.35;100.00;98782.59;4969238;28;20376;-77
2023/01/16 00:42:38;;;;;;;6.30;2.43;;;;;;;3.32;100.00;98781.06;4949904;28;20030;-77
2023/01/16 00:45:03;;;;;;;18.50;4.33;;;;;;;3.30;100.00;98772.53;4947343;28;20290;-77
2023/01/16 00:47:29;;;;;;;9.32;2.90;;;;;;;3.25;100.00;98766.06;4962876;28;20032;-77
2023/01/16 00:49:54;;;;;;;12.97;3.23;;;;;;;3.26;100.00;98773.81;4961174;28;20471;-78
2023/01/16 00:52:19;;;;;;;6.63;2.60;;;;;;;3.22;100.00;98767.22;4952983;28;20294;-77
2023/01/16 00:54:45;;;;;;;7.43;3.00;;;;;;;3.22;100.00;98776.97;4953639;28;20030;-77
2023/01/16 00:57:11;;;;;;;7.30;2.88;;;;;;;3.14;100.00;98772.50;4944519;28;20306;-77
2023/01/16 00:59:36;;;;;;;5.77;2.60;;;;;;;3.21;100.00;98785.84;4950652;28;20038;-77
2023/01/16 01:02:01;;;;;;;7.67;3.00;;;;;;;3.18;100.00;98784.34;4952917;28;20034;-77
2023/01/16 01:04:28;;;;;;;9.87;4.47;;;;;;;3.17;100.00;98795.91;4969160;28;20026;-77
2023/01/16 01:06:53;;;;;;;8.50;3.33;;;;;;;3.18;100.00;98797.53;4951527;28;20282;-78
2023/01/16 01:09:18;;;;;;;9.50;3.33;;;;;;;3.25;100.00;98808.25;4968850;28;20464;-77
2023/01/16 01:11:44;;;;;;;10.17;3.47;;;;;;;3.27;100.00;98801.84;4956301;28;20624;-77
2023/01/16 01:14:09;;;;;;;12.50;3.00;;;;;;;3.23;100.00;98800.53;4949349;28;20305;-77
2023/01/16 01:16:35;;;;;;;9.30;3.83;;;;;;;3.19;100.00;98807.13;4949181;28;20118;-77
2023/01/16 01:19:01;;;;;;;8.60;3.53;;;;;;;3.20;100.00;98816.66;4942009;28;20070;-76
2023/01/16 01:21:26;;;;;;;11.65;4.90;;;;;;;3.23;100.00;98803.19;4964381;28;20066;-76
2023/01/16 01:23:52;;;;;;;10.63;3.43;;;;;;;3.17;100.00;98798.53;4968618;28;20031;-77
2023/01/16 01:26:17;;;;;;;7.28;3.70;;;;;;;3.13;100.00;98800.66;4968629;28;20285;-77
2023/01/16 01:28:43;;;;;;;9.07;3.83;;;;;;;3.16;100.00;98810.91;4968190;28;20105;-77
2023/01/16 01:31:10;;;;;;;8.25;4.22;;;;;;;3.19;100.00;98809.75;4967544;28;20038;-75
2023/01/16 01:33:37;;;;;;;11.43;4.15;;;;;;;3.15;100.00;98796.06;4959563;28;20039;-76
2023/01/16 01:36:03;;;;;;;8.63;3.90;;;;;;;3.13;100.00;98797.22;4948660;28;20043;-76
2023/01/16 01:38:29;;;;;;;9.20;4.30;;;;;;;3.19;100.00;98808.94;4964942;28;20612;-75
2023/01/16 01:40:54;;;;;;;9.05;3.78;;;;;;;3.11;100.00;98786.00;4932228;28;20024;-76
2023/01/16 01:43:20;;;;;;;7.73;4.23;;;;;;;3.12;100.00;98785.03;4936849;29;20031;-76
2023/01/16 01:45:51;;;;;;;7.70;4.55;;;;;;;3.16;100.00;98800.34;4952749;28;20046;-77
2023/01/16 01:48:24;;;;;;;10.02;4.95;;;;;;;3.21;100.00;98799.88;4954473;28;20153;-75
2023/01/16 01:51:06;;;;;;;12.20;5.18;;;;;;;3.21;100.00;98799.88;4958710;28;20058;-76
2023/01/16 01:53:37;;;;;;;12.02;5.07;;;;;;;3.18;100.00;98797.53;4969590;28;20069;-75
2023/01/16 01:56:11;;;;;;;8.13;4.18;;;;;;;3.22;100.00;98787.50;4965637;28;20054;-76
2023/01/16 01:58:37;;;;;;;8.43;4.18;;;;;;;3.22;100.00;98793.59;4955286;28;20064;-76
2023/01/16 02:01:12;;;;;;;8.93;4.53;;;;;;;3.16;100.00;98767.88;4954561;28;20272;-76
2023/01/16 02:03:42;;;;;;;13.00;4.45;;;;;;;3.10;100.00;98758.00;4932629;28;20118;-75
2023/01/16 02:06:16;;;;;;;11.18;5.72;;;;;;;3.14;100.00;98759.31;4939110;28;20121;-75
2023/01/16 02:08:44;;;;;;;11.45;4.45;;;;;;;3.13;100.00;98758.47;4951339;28;20053;-76
2023/01/16 02:11:25;;;;;;;10.32;5.63;;;;;;;3.19;100.00;98767.56;4966875;28;20033;-76
2023/01/16 02:14:04;;;;;;;11.13;5.32;;;;;;;3.23;100.00;98757.50;4967411;28;20033;-75
2023/01/16 02:19:27;;;;;;;8.93;4.30;;;;;;;3.23;100.00;98753.06;4964930;28;20046;-78
2023/01/16 02:21:55;;;;;;;9.25;4.65;;;;;;;3.24;100.00;98759.97;4947579;28;20058;-76
2023/01/16 02:24:33;;;;;;;14.15;5.32;;;;;;;3.27;100.00;98753.53;4962569;28;20027;-75
2023/01/16 02:27:17;;;;;;;9.55;5.68;;;;;;;3.19;100.00;98746.47;4963868;28;20039;-75
2023/01/16 02:29:48;;;;;;;10.60;5.32;;;;;;;3.23;100.00;98750.44;4962029;28;20510;-75
2023/01/16 02:32:35;;;;;;;10.27;4.47;;;;;;;3.21;100.00;98755.03;4944042;29;20035;-77
2023/01/16 02:35:10;;;;;;;9.65;5.03;;;;;;;3.26;100.00;98771.19;4956922;28;20031;-76
2023/01/16 02:37:43;;;;;;;9.82;5.63;;;;;;;3.19;100.00;98751.75;4965351;28;20513;-75
2023/01/16 02:40:39;;;;;;;12.40;6.25;;;;;;;3.16;100.00;98752.91;4968353;28;20078;-75
2023/01/16 02:43:14;;;;;;;11.23;5.35;;;;;;;3.16;100.00;98755.53;4970209;28;20081;-76
2023/01/16 02:45:47;;;;;;;10.07;6.10;;;;;;;3.18;100.00;98763.25;4936106;28;20031;-76
2023/01/16 02:48:38;;;;;;;12.70;5.35;;;;;;;3.13;100.00;98765.56;4950124;28;20042;-77
2023/01/16 02:51:32;;;;;;;15.60;6.55;;;;;;;3.09;100.00;98765.09;4940276;28;20042;-75
2023/01/16 02:54:10;;;;;;;11.38;5.53;;;;;;;3.14;100.00;98778.59;4942212;29;20038;-77
2023/01/16 02:56:57;;;;;;;18.05;6.13;;;;;;;3.17;100.00;98780.09;4948321;28;20035;-76
2023/01/16 02:59:26;;;;;;;13.23;6.68;;;;;;;3.19;100.00;98779.94;4948772;28;20056;-75
2023/01/16 03:01:52;;;;;;;11.60;5.38;;;;;;;3.17;100.00;98777.44;4931465;28;20077;-75
2023/01/16 03:04:36;;;;;;;18.27;6.28;;;;;;;3.27;100.00;98791.28;4952897;28;20067;-75
2023/01/16 03:07:25;;;;;;;14.13;6.50;;;;;;;3.23;100.00;98776.81;4957158;28;20571;-75
2023/01/16 03:10:21;;;;;;;12.98;7.03;;;;;;;3.29;100.00;98773.50;4926101;28;20131;-75
2023/01/16 03:13:15;;;;;;;18.70;7.72;;;;;;;3.30;100.00;98776.94;4947486;28;20202;-77
2023/01/16 03:16:19;;;;;;;10.25;6.68;;;;;;;3.32;100.00;98767.88;4962170;28;20039;-77
2023/01/16 03:18:50;;;;;;;14.75;5.93;;;;;;;3.31;100.00;98760.97;4955834;28;20038;-75
2023/01/16 03:21:23;;;;;;;18.50;6.38;;;;;;;3.34;100.00;98755.34;4960890;28;20031;-75
2023/01/16 03:23:53;;;;;;;12.02;6.07;;;;;;;3.38;100.00;98746.13;4950043;28;20035;-75
2023/01/16 03:26:37;;;;;;;12.00;5.30;;;;;;;3.42;100.00;98736.09;4967819;28;20026;-77
2023/01/16 03:29:14;;;;;;;14.52;4.85;;;;;;;3.41;100.00;98723.06;4949738;28;20093;-74
2023/01/16 03:31:50;;;;;;;12.07;5.10;;;;;;;3.44;100.00;98712.16;4951176;28;20031;-75
2023/01/16 03:34:43;;;;;;;7.40;4.05;;;;;;;3.42;100.00;98693.03;4942515;28;20082;-75
2023/01/16 03:37:19;;;;;;;8.52;4.55;;;;;;;3.42;100.00;98687.75;4940192;29;20043;-75
2023/01/16 03:39:51;;;;;;;11.55;5.15;;;;;;;3.42;100.00;98674.56;4946794;28;20106;-75
2023/01/16 03:42:24;;;;;;;10.38;4.53;;;;;;;3.41;100.00;98665.84;4932500;29;20035;-75
2023/01/16 03:45:03;;;;;;;11.57;5.28;;;;;;;3.48;100.00;98655.44;4933253;28;20039;-75
2023/01/16 03:47:41;;;;;;;13.15;4.82;;;;;;;3.44;100.00;98641.78;4949889;28;20129;-75
2023/01/16 03:50:10;;;;;;;13.10;4.22;;;;;;;3.42;100.00;98627.06;4946648;28;20042;-75
2023/01/16 03:52:40;;;;;;;14.05;4.15;;;;;;;3.33;100.00;98619.19;4956030;28;20026;-75
2023/01/16 03:55:16;;;;;;;8.52;3.95;;;;;;;3.38;100.00;98614.25;4960886;28;20158;-75
2023/01/16 03:57:46;;;;;;;8.48;3.85;;;;;;;3.47;100.00;98598.41;4960121;28;20039;-75
2023/01/16 04:00:13;;;;;;;6.88;3.30;;;;;;;3.42;100.00;98580.44;4951912;28;20871;-77
2023/01/16 04:02:53;;;;;;;8.55;4.05;;;;;;;3.42;100.00;98569.03;4954961;28;20063;-75
2023/01/16 04:05:26;;;;;;;8.60;3.40;;;;;;;3.30;100.00;98548.34;4946547;28;20038;-75
2023/01/16 04:07:57;;;;;;;9.43;3.72;;;;;;;3.31;100.00;98570.25;4947715;28;20057;-75
2023/01/16 04:10:28;;;;;;;4.75;3.03;;;;;;;3.33;100.00;98579.63;4958529;28;20559;-75
2023/01/16 04:12:58;;;;;;;10.60;4.30;;;;;;;3.34;100.00;98564.63;4961125;28;20627;-75
2023/01/16 04:15:27;;;;;;;10.05;3.80;;;;;;;3.31;100.00;98563.16;4951962;28;20433;-75
2023/01/16 04:17:53;;;;;;;6.97;3.38;;;;;;;3.31;100.00;98559.69;4946230;28;20122;-75
2023/01/16 04:20:19;;;;;;;8.93;4.10;;;;;;;3.32;100.00;98564.78;4940493;29;20074;-75
2023/01/16 04:22:49;;;;;;;6.68;3.63;;;;;;;3.34;100.00;98570.72;4947547;28;20054;-75
2023/01/16 04:25:16;;;;;;;10.73;3.60;;;;;;;3.24;100.00;98554.28;4951992;28;20039;-74
2023/01/16 04:27:41;;;;;;;9.63;3.60;;;;;;;3.17;100.00;98551.47;4949628;28;20026;-75
2023/01/16 04:30:07;;;;;;;6.03;3.50;;;;;;;3.18;100.00;98557.56;4949886;28;20484;-75
2023/01/16 04:32:33;;;;;;;8.55;3.45;;;;;;;3.16;100.00;98559.56;4966160;28;20038;-75
2023/01/16 04:34:58;;;;;;;7.50;3.20;;;;;;;3.11;100.00;98559.25;4937882;28;20089;-75
2023/01/16 04:37:23;;;;;;;9.70;3.50;;;;;;;3.08;100.00;98555.13;4958777;28;20046;-75
2023/01/16 04:39:49;;;;;;;12.27;5.20;;;;;;;3.10;100.00;98565.50;4947865;28;20048;-75
2023/01/16 04:42:15;;;;;;;7.45;3.78;;;;;;;3.06;100.00;98559.75;4951275;28;20564;-77
2023/01/16 04:44:40;;;;;;;7.38;3.45;;;;;;;3.08;100.00;98559.59;4952152;28;20039;-77
2023/01/16 04:47:05;;;;;;;16.48;5.97;;;;;;;3.09;100.00;98555.94;4953418;28;20200;-75
2023/01/16 04:49:31;;;;;;;6.55;3.75;;;;;;;3.04;100.00;98559.09;4957420;28;20392;-75
2023/01/16 04:51:56;;;;;;;6.73;3.53;;;;;;;2.90;100.00;98547.44;4953660;28;20046;-75
2023/01/16 04:54:22;;;;;;;10.77;4.18;;;;;;;2.90;100.00;98565.88;4953997;28;20452;-75
2023/01/16 04:56:47;;;;;;;8.67;5.03;;;;;;;2.80;100.00;98567.84;4965595;28;20074;-75
2023/01/16 04:59:12;;;;;;;13.77;4.07;;;;;;;2.81;100.00;98585.31;4950836;28;20401;-75
2023/01/16 05:01:39;;;;;;;9.55;4.05;;;;;;;2.78;100.00;98596.19;4967502;28;20490;-75
2023/01/16 05:04:06;;;;;;;11.25;3.70;;;;;;;2.78;100.00;98601.44;4941131;28;20037;-75
2023/01/16 05:06:33;;;;;;;11.45;3.78;;;;;;;2.80;100.00;98615.28;4959076;28;20027;-74
2023/01/16 05:08:58;;;;;;;11.38;3.80;;;;;;;2.82;100.00;98621.22;4949418;28;20039;-75
2023/01/16 05:11:24;;;;;;;8.27;4.18;;;;;;;2.74;100.00;98611.50;4945470;29;20042;-76
2023/01/16 05:13:49;;;;;;;7.85;3.65;;;;;;;2.79;100.00;98629.47;4952760;28;20019;-75
2023/01/16 05:16:15;;;;;;;13.40;4.25;;;;;;;2.81;100.00;98626.66;4964130;28;20500;-75
2023/01/16 05:18:40;;;;;;;10.10;4.82;;;;;;;2.78;100.00;98629.63;4950507;28;20042;-75
2023/01/16 05:21:06;;;;;;;13.33;4.90;;;;;;;2.73;100.00;98624.84;4951541;28;20460;-77
2023/01/16 05:23:37;;;;;;;11.80;4.47;;;;;;;2.78;100.00;98645.44;4957021;28;20794;-77
2023/01/16 05:26:04;;;;;;;13.52;5.03;;;;;;;2.71;100.00;98645.25;4954430;28;20027;-77
2023/01/16 05:28:30;;;;;;;7.70;3.67;;;;;;;2.62;100.00;98644.44;4949260;28;20023;-75
2023/01/16 05:30:55;;;;;;;8.88;3.30;;;;;;;2.60;100.00;98649.06;4928654;29;20034;-75
2023/01/16 05:33:21;;;;;;;8.25;3.55;;;;;;;2.59;100.00;98652.66;4940104;29;20043;-75
2023/01/16 05:35:46;;;;;;;7.13;4.07;;;;;;;2.61;100.00;98663.84;4949463;28;20053;-76
2023/01/16 05:38:13;;;;;;;8.55;3.85;;;;;;;2.65;100.00;98680.19;4950655;28;20531;-77
2023/01/16 05:40:38;;;;;;;7.07;2.97;;;;;;;2.63;100.00;98672.44;4965111;28;20090;-75
2023/01/16 05:43:04;;;;;;;9.43;3.75;;;;;;;2.71;100.00;98679.50;4938626;28;20470;-75
2023/01/16 05:45:29;;;;;;;9.53;2.60;;;;;;;2.69;100.00;98681.47;4962285;28;20031;-75
2023/01/16 05:47:55;;;;;;;7.65;2.95;;;;;;;2.67;100.00;98683.44;4956310;28;20648;-77
2023/01/16 05:50:20;;;;;;;6.78;3.25;;;;;;;2.71;100.00;98676.88;4944857;28;20027;-75
2023/01/16 05:52:47;;;;;;;10.52;3.20;;;;;;;2.62;100.00;98654.13;4949550;28;20077;-75
2023/01/16 05:55:13;;;;;;;8.90;3.57;;;;;;;2.69;100.00;98666.53;4958785;28;20885;-75
2023/01/16 05:57:38;;;;;;;9.75;3.42;;;;;;;2.71;100.00;98672.44;4932802;28;20301;-75
2023/01/16 06:00:05;;;;;;;6.73;2.17;;;;;;;2.67;100.00;98660.59;4949005;28;20059;-77
2023/01/16 06:02:31;;;;;;;5.72;2.53;;;;;;;2.71;100.00;98671.59;4956689;28;20044;-77
2023/01/16 06:04:57;;;;;;;9.10;2.50;;;;;;;2.65;100.00;98656.47;4947271;28;20035;-77
2023/01/16 06:07:22;;;;;;;4.82;2.70;;;;;;;2.73;100.00;98661.72;4951986;28;20039;-77
2023/01/16 06:09:47;;;;;;;7.82;2.13;;;;;;;2.71;100.00;98661.88;4936932;28;20038;-77
2023/01/16 06:12:17;;;;;;;8.27;2.40;;;;;;;2.73;100.00;98667.00;4954846;28;20039;-77
2023/01/16 06:14:44;;;;;;;6.13;2.95;;;;;;;2.77;100.00;98657.78;4948462;28;20806;-77
2023/01/16 06:17:09;;;;;;;;;;;;;;;2.85;100.00;98652.50;4946088;28;20043;-77
2023/01/16 06:19:35;;;;;;;5.80;1.92;;;;;;;2.78;100.00;98633.06;4961153;28;19977;-77
2023/01/16 06:22:00;;;;;;;12.07;3.03;;;;;;;2.78;100.00;98637.53;4948662;28;20046;-77
2023/01/16 06:24:25;;;;;;;5.73;2.13;;;;;;;2.75;100.00;98638.69;4959957;28;20033;-77
2023/01/16 06:26:51;;;;;;;3.47;1.80;;;;;;;2.81;100.00;98640.66;4948701;28;20027;-74
2023/01/16 06:29:16;;;;;;;6.13;2.43;;;;;;;2.81;100.00;98634.56;4958478;28;20043;-74
2023/01/16 06:31:41;;;;;;;4.73;1.93;;;;;;;2.80;100.00;98628.47;4949150;28;20294;-77
2023/01/16 06:34:07;;;;;;;5.90;1.67;;;;;;;2.84;100.00;98631.59;4963964;28;20031;-77
2023/01/16 06:36:32;;;;;;;4.07;2.30;;;;;;;2.86;100.00;98622.53;4947767;28;20286;-77
2023/01/16 06:38:57;;;;;;;7.43;2.03;;;;;;;2.84;100.00;98611.34;4940775;28;20270;-77
2023/01/16 06:41:23;;;;;;;9.67;1.90;;;;;;;2.93;100.00;98623.53;4943089;28;20484;-77
2023/01/16 06:43:48;;;;;;;8.50;2.50;;;;;;;2.85;100.00;98597.16;4937974;28;20283;-77
2023/01/16 06:46:14;;;;;;;6.60;1.93;;;;;;;2.79;100.00;98582.03;4957063;28;20109;-79
2023/01/16 06:48:41;;;;;;;4.40;1.60;;;;;;;2.89;100.00;98580.03;4960378;28;20508;-77
2023/01/16 06:51:06;;;;;;;4.97;1.55;;;;;;;2.91;100.00;98583.34;4939928;28;20069;-77
2023/01/16 06:53:32;;;;;;;2.90;1.80;;;;;;;2.94;100.00;98574.25;4949554;28;20453;-77
2023/01/16 06:55:57;;;;;;;3.37;1.57;;;;;;;3.00;100.00;98560.44;4953100;28;20101;-77
2023/01/16 06:58:22;;;;;;;12.47;3.23;;;;;;;2.98;100.00;98543.97;4951710;28;20030;-77
2023/01/16 07:00:51;;;;;;;8.50;1.63;;;;;;;2.95;100.00;98523.22;4955129;28;20332;-77
2023/01/16 07:03:17;;;;;;;4.15;1.35;;;;;;;2.87;100.00;98510.84;4952929;28;20023;-77
2023/01/16 07:05:43;;;;;;;;;;;;;;;2.96;100.00;98523.03;4949327;28;20041;-77
2023/01/16 07:08:09;;;;;;;8.82;1.45;;;;;;;2.90;100.00;98510.53;4940496;28;19969;-77
2023/01/16 07:10:35;;;;;;;6.33;2.07;;;;;;;3.00;100.00;98522.69;4942329;28;20100;-77
2023/01/16 07:13:00;;;;;;;5.10;1.33;;;;;;;2.98;100.00;98506.22;4968565;28;20305;-77
2023/01/16 07:23:56;;;;;;;4.47;1.42;;;;;;;2.98;100.00;98496.50;4962087;28;20456;-77
2023/01/16 07:26:22;;;;;;;8.07;1.85;;;;;;;2.91;100.00;98477.91;4949941;28;20113;-77
2023/01/16 07:28:49;;;;;;;5.10;1.40;;;;;;;2.96;100.00;98486.13;4947445;28;20038;-76
2023/01/16 07:31:15;;;;;;;3.83;1.30;;;;;;;2.99;100.00;98486.78;4947588;28;20090;-77
2023/01/16 07:33:41;;;;;;;4.40;1.00;;;;;;;3.03;100.00;98482.81;4947112;28;20056;-76
2023/01/16 07:36:06;;;;;;;4.43;1.87;;;;;;;2.98;100.00;98469.34;4936127;29;20055;-77
2023/01/16 07:38:31;;;;;;;5.93;1.50;;;;;;;2.94;100.00;98451.19;4952759;28;20031;-77
2023/01/16 07:40:57;;;;;;;5.87;1.40;;;;;;;2.99;100.00;98453.31;4946620;28;20058;-77
2023/01/16 07:43:22;;;;;;;7.50;1.60;;;;;;;2.99;100.00;98434.88;4942770;29;20102;-77
2023/01/16 07:45:52;;;;;;;6.13;1.40;;;;;;;3.06;100.00;98443.75;4930926;28;20048;-77
2023/01/16 07:48:19;;;;;;;4.32;1.30;;;;;;;2.95;100.00;98409.88;4950956;28;20034;-77
2023/01/16 07:50:56;;;;;;;3.38;1.27;;;;;;;2.98;100.00;98427.16;4960529;28;20062;-77
2023/01/16 07:53:24;;;;;;;13.13;2.35;;;;;;;2.88;100.00;98419.41;4942838;29;20027;-77
2023/01/16 07:55:50;;;;;;;4.05;1.90;;;;;;;2.87;100.00;98429.16;4948722;28;20038;-77
2023/01/16 07:58:17;;;;;;;5.45;2.20;;;;;;;2.83;100.00;98433.09;4948733;28;20103;-77
2023/01/16 08:00:42;;;;;;;;;;;;;;;2.96;100.00;98436.03;4962940;28;20059;-77
2023/01/16 08:03:07;;;;;;;5.28;1.30;;;;;;;2.90;100.00;98431.47;4931157;29;19988;-75
2023/01/16 08:05:33;;;;;;;8.13;1.80;;;;;;;2.89;100.00;98424.53;4956417;28;20027;-77
2023/01/16 08:07:58;;;;;;;5.43;1.58;;;;;;;2.89;100.00;98421.09;4930813;29;20473;-77
2023/01/16 08:10:24;;;;;;;4.87;1.27;;;;;;;2.95;100.00;98423.88;4952947;28;20045;-77
2023/01/16 08:12:49;;;;;;;6.60;1.67;;;;;;;2.91;100.00;98409.38;4960357;28;20285;-77
2023/01/16 08:15:15;;;;;;;10.17;1.83;;;;;;;2.95;100.00;98409.88;4937013;29;20028;-77
2023/01/16 08:17:40;;;;;;;3.75;1.08;;;;;;;2.97;100.00;98392.03;4955833;28;20775;-77
2023/01/16 08:20:07;;;;;;;2.58;1.58;;;;;;;2.86;100.00;98374.81;4947135;28;20480;-76
2023/01/16 08:22:32;;;;;;;3.90;1.60;;;;;;;2.81;100.00;98365.75;4943773;28;20039;-77
2023/01/16 08:24:58;;;;;;;17.53;3.30;;;;;;;2.92;100.00;98376.75;4953516;28;20031;-77
2023/01/16 08:27:23;;;;;;;7.33;2.13;;;;;;;2.99;100.00;98376.06;4962440;28;20345;-77
2023/01/16 08:29:48;;;;;;;6.60;2.77;;;;;;;3.21;100.00;98391.13;4954226;28;20090;-77
2023/01/16 08:32:14;;;;;;;3.30;1.20;;;;;;;3.45;100.00;98382.25;4950000;28;20473;-76
2023/01/16 08:34:41;;;;;;;6.63;1.93;;;;;;;3.83;100.00;98363.00;4950027;28;20387;-77
2023/01/16 08:37:10;;;;;;;8.30;1.40;;;;;;;3.73;100.00;98305.19;4950933;28;20031;-77
2023/01/16 08:39:35;;;;;;;3.30;0.80;;;;;;;3.76;100.00;98279.25;4966625;28;20034;-77
2023/01/16 08:52:58;;;;;;;;;;;;;;;5.60;100.00;98059.56;4952314;28;20033;-77
2023/01/16 08:55:23;;;;;;;5.13;1.10;;;;;;;5.18;100.00;97873.56;4949472;28;19914;-77
2023/01/16 08:57:49;;;;;;;3.37;1.23;;;;;;;5.47;100.00;97859.97;4933365;28;20062;-77
2023/01/16 09:00:14;;;;;;;3.83;1.73;;;;;;;6.01;100.00;97801.81;4944343;28;20995;-77
2023/01/16 09:02:40;;;;;;;3.55;1.35;;;;;;;5.14;100.00;97672.13;4951050;28;20442;-77
2023/01/16 09:05:07;;;;;;;2.00;1.00;;;;;;;5.71;100.00;97771.28;4946218;28;20035;-77
2023/01/16 09:07:32;;;;;;;3.20;1.35;;;;;;;5.71;100.00;97563.97;4962570;28;20027;-77
2023/01/16 09:09:57;;;;;;;2.43;1.30;;;;;;;5.19;100.00;97523.41;4939097;28;20277;-77
2023/01/16 09:15:07;;;;;;;4.03;1.73;;;;;;;5.52;100.00;97628.34;4957981;28;20035;-77
2023/01/16 09:17:32;;;;;;;3.15;1.08;;;;;;;4.61;100.00;97506.41;4956616;28;20591;-77
2023/01/16 09:19:58;;;;;;;7.43;1.33;;;;;;;5.32;100.00;97674.16;4944855;28;20546;-77
2023/01/16 09:22:26;;;;;;;4.13;1.20;;;;;;;5.80;100.00;97607.72;4952265;28;20049;-77
2023/01/16 09:24:52;;;;;;;5.05;0.90;;;;;;;5.96;100.00;97556.16;4952199;28;20290;-77
2023/01/16 09:27:18;;;;;;;6.43;1.40;;;;;;;5.68;100.00;97416.16;4952202;28;20105;-77
2023/01/16 09:29:44;;;;;;;6.70;1.55;;;;;;;4.78;100.00;97213.44;4947861;28;20134;-77
2023/01/16 09:32:10;;;;;;;6.80;1.15;;;;;;;4.12;100.00;97391.41;4948738;28;20031;-75
2023/01/16 09:34:37;;;;;;;6.68;2.47;;;;;;;3.92;100.00;97591.16;4954531;28;20106;-75
2023/01/16 09:37:03;;;;;;;3.72;1.05;;;;;;;3.70;100.00;97673.06;4941108;29;20666;-77
2023/01/16 09:39:28;;;;;;;4.88;1.85;;;;;;;3.70;100.00;97794.44;4965328;28;20070;-77
2023/01/16 09:44:54;;;;;;;5.75;1.52;;;;;;;3.73;100.00;97877.69;4950831;28;20282;-77
2023/01/16 09:47:23;;;;;;;2.88;1.00;;;;;;;3.81;100.00;97923.22;4948244;28;20027;-77
2023/01/16 09:49:57;;;;;;;3.65;2.40;;;;;;;4.04;100.00;97969.75;4965291;28;20026;-77
2023/01/16 09:58:35;;;;;;;3.05;1.10;;;;;;;4.96;100.00;97905.38;4952018;28;20043;-77
2023/01/16 10:01:13;;;;;;;6.18;1.00;;;;;;;4.92;100.00;97781.72;4935819;29;20038;-77
2023/01/16 10:03:42;;;;;;;6.30;1.30;;;;;;;5.27;100.00;97766.56;4949436;28;20085;-77
2023/01/16 10:06:24;;;;;;;3.53;1.42;;;;;;;5.00;100.00;97572.66;4934108;29;20026;-77
2023/01/16 10:09:19;;;;;;;1.00;0.77;;;;;;;4.75;100.00;97520.44;4962719;28;20073;-77
2023/01/16 10:11:53;;;;;;;;;;;;;;;5.12;100.00;97576.31;4961452;28;20043;-77
2023/01/16 10:14:35;;;;;;;3.70;1.70;;;;;;;5.32;100.00;97571.00;4951172;28;20776;-77
2023/01/16 10:17:07;;;;;;;5.93;1.33;;;;;;;5.58;100.00;97526.97;4954185;28;20045;-77
2023/01/16 10:20:05;;;;;;;3.95;1.20;;;;;;;5.99;100.00;97501.97;4947877;28;20073;-77
2023/01/16 10:22:46;;;;;;;8.35;1.98;;;;;;;5.33;100.00;97286.94;4940689;28;20602;-75
2023/01/16 10:25:21;;;;;;;5.40;1.75;;;;;;;5.62;100.00;97354.31;4963732;28;20038;-75
2023/01/16 10:28:21;;;;;;;5.63;2.63;;;;;;;5.68;100.00;97364.03;4959732;28;20043;-77
2023/01/16 10:30:52;;;;;;;9.10;2.55;;;;;;;5.92;100.00;97264.50;4952753;28;20051;-77
2023/01/16 10:33:46;;;;;;;8.30;2.20;;;;;;;5.93;100.00;97215.81;4945802;28;20066;-77
2023/01/16 10:36:14;;;;;;;3.35;1.00;;;;;;;5.47;100.00;97060.94;4942014;28;20102;-77
2023/01/16 10:38:43;;;;;;;2.38;0.90;;;;;;;4.84;100.00;97130.63;4949437;28;20485;-78
2023/01/16 10:49:53;;;;;;;2.17;1.20;;;;;;;4.52;100.00;97449.50;4960396;28;20581;-77
2023/01/16 10:52:19;;;;;;;6.17;1.30;;;;;;;4.28;100.00;97476.50;4963679;28;20041;-77
2023/01/16 10:54:44;;;;;;;2.50;0.97;;;;;;;4.13;100.00;97497.81;4953181;28;20286;-77
2023/01/16 10:57:16;;;;;;;1.88;0.80;;;;;;;4.10;100.00;97588.00;4940135;28;20077;-77
2023/01/16 10:59:45;;;;;;;5.30;1.35;;;;;;;3.85;100.00;97629.91;4969880;28;20081;-77
2023/01/16 11:02:32;;;;;;;5.65;2.30;;;;;;;4.13;100.00;97767.94;4960236;28;20035;-76
2023/01/16 11:04:58;;;;;;;1.42;0.88;;;;;;;4.02;100.00;97771.13;4959918;28;20088;-76
2023/01/16 11:07:27;;;;;;;2.28;0.80;;;;;;;3.95;100.00;97751.78;4966652;28;20456;-76
2023/01/16 11:09:53;;;;;;;2.92;1.35;;;;;;;4.11;100.00;97793.72;4967735;28;20218;-77
2023/01/16 11:20:49;;;;;;;3.50;1.08;;;;;;;3.95;100.00;97742.03;4941661;28;20195;-77
2023/01/16 11:23:22;;;;;;;4.53;1.15;;;;;;;4.09;100.00;97773.81;4938457;28;20098;-77
2023/01/16 11:25:50;;;;;;;2.33;0.93;;;;;;;4.11;100.00;97754.13;4952757;28;20094;-77
2023/01/16 11:28:31;;;;;;;1.98;1.30;;;;;;;4.08;100.00;97738.66;4955086;28;20068;-77
2023/01/16 11:31:12;;;;;;;4.07;1.70;;;;;;;4.11;100.00;97750.66;4938301;28;20035;-77
2023/01/16 11:33:48;;;;;;;3.92;1.83;;;;;;;4.10;100.00;97728.72;4950787;28;20054;-77
2023/01/16 11:36:17;;;;;;;5.72;1.20;;;;;;;4.13;100.00;97733.63;4943704;28;20073;-77
2023/01/16 11:38:45;;;;;;;6.72;2.97;;;;;;;4.29;100.00;97755.44;4939402;28;20028;-77
2023/01/16 11:41:11;;;;;;;4.78;1.40;;;;;;;4.37;100.00;97753.44;4951926;28;20031;-77
2023/01/16 11:46:41;;;;;;;2.83;1.10;;;;;;;4.32;100.00;97712.78;4945651;28;20126;-77
2023/01/16 11:49:17;;;;;;;3.80;1.08;;;;;;;4.33;100.00;97707.31;4953572;28;20027;-77
2023/01/16 11:51:42;;;;;;;;;;;;;;;4.12;100.00;97650.16;4949093;28;20408;-77
2023/01/16 11:54:16;;;;;;;5.68;1.38;;;;;;;4.19;100.00;97682.69;4936031;28;19915;-77
2023/01/16 11:57:01;;;;;;;2.97;1.33;;;;;;;4.18;100.00;97665.19;4955602;28;20046;-78
2023/01/16 11:59:29;;;;;;;5.32;1.02;;;;;;;4.18;100.00;97644.06;4957155;28;20043;-77
2023/01/16 12:02:20;;;;;;;2.88;1.40;;;;;;;4.43;100.00;97702.47;4955082;28;20070;-77
2023/01/16 12:08:12;;;;;;;4.47;1.00;;;;;;;4.98;100.00;97625.72;4945191;28;20046;-77
2023/01/16 12:10:48;;;;;;;5.57;1.73;;;;;;;4.70;100.00;97458.63;4932458;28;20493;-77
2023/01/16 12:16:35;;;;;;;2.10;1.20;;;;;;;5.33;100.00;97413.91;4957794;28;20094;-77
2023/01/16 12:19:26;;;;;;;2.97;1.00;;;;;;;5.31;100.00;97235.25;4967936;28;20047;-77
2023/01/16 12:22:10;;;;;;;5.30;1.08;;;;;;;5.54;100.00;97193.16;4947414;28;20416;-77
2023/01/16 12:25:20;;;;;;;5.18;1.33;;;;;;;5.79;100.00;97221.44;4934548;28;20034;-77
2023/01/16 12:28:13;;;;;;;3.88;0.90;;;;;;;5.61;100.00;97023.75;4910280;28;20054;-77
2023/01/16 12:31:17;;;;;;;4.38;1.23;;;;;;;5.11;100.00;96936.63;4954973;28;20031;-77
2023/01/16 12:33:57;;;;;;;4.87;1.30;;;;;;;5.20;100.00;97062.25;4949113;28;20192;-77
2023/01/16 12:37:01;;;;;;;4.78;1.25;;;;;;;5.20;100.00;97092.13;4951539;28;20305;-77
2023/01/16 12:39:45;;;;;;;2.20;1.15;;;;;;;5.59;100.00;97106.00;4953953;28;20039;-77
2023/01/16 12:45:40;;;;;;;2.08;1.05;;;;;;;5.32;100.00;96989.06;4958751;28;20513;-77
2023/01/16 12:48:18;;;;;;;3.03;0.93;;;;;;;5.49;100.00;97010.44;4941299;28;20503;-77
2023/01/16 12:50:57;;;;;;;4.25;0.90;;;;;;;5.11;100.00;96822.94;4950955;28;20083;-79